Time,TemperatureF,DewpointF,PressureIn,WindDirection,WindDirectionDegrees,WindSpeedMPH,WindSpeedGustMPH,Humidity,HourlyPrecipIn,Conditions,Clouds,dailyrainin,SoftwareType,DateUTC
2013-05-25 00:01:00,52.0,20.0,-100.00,West,260,2.0,5.0,28,-99.99,,,-99.99,,2013-05-25 06:01:00,
2013-05-25 00:11:00,52.0,22.0,-100.00,SSW,205,0.0,3.0,30,-99.99,,,-99.99,,2013-05-25 06:11:00,
2013-05-25 00:21:00,51.0,22.0,-100.00,NNW,340,2.0,4.0,31,-99.99,,,-99.99,,2013-05-25 06:21:00,
2013-05-25 00:32:00,51.0,21.0,-100.00,SW,215,1.0,4.0,30,-99.99,,,-99.99,,2013-05-25 06:32:00,
2013-05-25 00:41:00,49.0,21.0,-100.00,South,185,2.0,6.0,32,-99.99,,,-99.99,,2013-05-25 06:41:00,
2013-05-25 00:51:00,53.0,21.0,-100.00,East,90,1.0,4.0,29,-99.99,,,-99.99,,2013-05-25 06:51:00,
2013-05-25 01:01:00,51.0,20.0,-100.00,ESE,120,4.0,10.0,29,-99.99,,,-99.99,,2013-05-25 07:01:00,
2013-05-25 01:11:00,51.0,23.0,-100.00,South,180,6.0,7.0,33,-99.99,,,-99.99,,2013-05-25 07:11:00,
2013-05-25 01:21:00,50.0,21.0,-100.00,SSE,150,7.0,9.0,32,-99.99,,,-99.99,,2013-05-25 07:21:00,
2013-05-25 01:31:00,49.0,21.0,-100.00,South,190,8.0,12.0,33,-99.99,,,-99.99,,2013-05-25 07:31:00,
2013-05-25 01:41:00,48.0,22.0,-100.00,South,190,13.0,14.0,34,-99.99,,,-99.99,,2013-05-25 07:41:00,
2013-05-25 01:52:00,47.0,22.0,-100.00,South,190,14.0,15.0,35,-99.99,,,-99.99,,2013-05-25 07:52:00,
2013-05-25 02:01:00,46.0,22.0,-100.00,South,185,10.0,15.0,38,-99.99,,,-99.99,,2013-05-25 08:01:00,
2013-05-25 02:11:00,47.0,23.0,-100.00,SW,225,16.0,16.0,37,-99.99,,,-99.99,,2013-05-25 08:11:00,
2013-05-25 02:22:00,51.0,22.0,-100.00,SW,230,12.0,16.0,31,-99.99,,,-99.99,,2013-05-25 08:22:00,
2013-05-25 02:31:00,50.0,20.0,-100.00,SW,225,14.0,15.0,31,-99.99,,,-99.99,,2013-05-25 08:31:00,
2013-05-25 02:41:00,49.0,20.0,-100.00,SW,215,12.0,14.0,31,-99.99,,,-99.99,,2013-05-25 08:41:00,
2013-05-25 02:51:00,45.0,20.0,-100.00,SSW,210,9.0,11.0,35,-99.99,,,-99.99,,2013-05-25 08:51:00,
2013-05-25 03:01:00,47.0,20.0,-100.00,SW,215,12.0,12.0,33,-99.99,,,-99.99,,2013-05-25 09:01:00,
2013-05-25 03:11:00,46.0,19.0,-100.00,SSW,200,13.0,14.0,33,-99.99,,,-99.99,,2013-05-25 09:11:00,
2013-05-25 03:21:00,46.0,20.0,-100.00,SSW,205,14.0,15.0,34,-99.99,,,-99.99,,2013-05-25 09:21:00,
2013-05-25 03:33:00,44.0,20.0,-100.00,SSW,195,16.0,16.0,37,-99.99,,,-99.99,,2013-05-25 09:33:00,
2013-05-25 03:42:00,45.0,20.0,-100.00,South,190,15.0,17.0,35,-99.99,,,-99.99,,2013-05-25 09:42:00,
2013-05-25 03:52:00,45.0,19.0,-100.00,SSW,195,14.0,16.0,35,-99.99,,,-99.99,,2013-05-25 09:52:00,
2013-05-25 04:02:00,49.0,18.0,-100.00,SW,225,12.0,14.0,29,-99.99,,,-99.99,,2013-05-25 10:02:00,
2013-05-25 04:12:00,49.0,18.0,-100.00,SW,235,4.0,14.0,29,-99.99,,,-99.99,,2013-05-25 10:12:00,
2013-05-25 04:22:00,49.0,18.0,-100.00,NNW,330,4.0,6.0,27,-99.99,,,-99.99,,2013-05-25 10:22:00,
2013-05-25 04:32:00,49.0,17.0,-100.00,North,0,4.0,6.0,27,-99.99,,,-99.99,,2013-05-25 10:32:00,
2013-05-25 04:42:00,49.0,17.0,-100.00,North,0,4.0,6.0,27,-99.99,,,-99.99,,2013-05-25 10:42:00,
2013-05-25 04:52:00,49.0,15.0,-100.00,WNW,290,0.0,6.0,25,-99.99,,,-99.99,,2013-05-25 10:52:00,
2013-05-25 05:02:00,44.0,18.0,-100.00,ESE,120,9.0,10.0,35,-99.99,,,-99.99,,2013-05-25 11:02:00,
2013-05-25 05:11:00,39.0,19.0,-100.00,SE,145,9.0,11.0,43,-99.99,,,-99.99,,2013-05-25 11:11:00,
2013-05-25 05:21:00,42.0,20.0,-100.00,South,185,12.0,14.0,41,-99.99,,,-99.99,,2013-05-25 11:21:00,
2013-05-25 05:32:00,41.0,20.0,-100.00,SSW,195,11.0,13.0,41,-99.99,,,-99.99,,2013-05-25 11:32:00,
2013-05-25 05:41:00,43.0,20.0,-100.00,SSW,205,13.0,14.0,39,-99.99,,,-99.99,,2013-05-25 11:41:00,
2013-05-25 05:52:00,43.0,20.0,-100.00,SSW,205,14.0,15.0,38,-99.99,,,-99.99,,2013-05-25 11:52:00,
2013-05-25 06:01:00,44.0,20.0,-100.00,SSW,210,14.0,15.0,37,-99.99,,,-99.99,,2013-05-25 12:01:00,
2013-05-25 06:12:00,46.0,19.0,-100.00,SW,215,12.0,14.0,34,-99.99,,,-99.99,,2013-05-25 12:12:00,
2013-05-25 06:21:00,46.0,19.0,-100.00,SSW,205,12.0,14.0,34,-99.99,,,-99.99,,2013-05-25 12:21:00,
2013-05-25 06:32:00,45.0,19.0,-100.00,SSW,200,13.0,14.0,35,-99.99,,,-99.99,,2013-05-25 12:32:00,
2013-05-25 06:42:00,45.0,19.0,-100.00,South,190,14.0,16.0,35,-99.99,,,-99.99,,2013-05-25 12:42:00,
2013-05-25 06:52:00,45.0,20.0,-100.00,South,190,15.0,16.0,36,-99.99,,,-99.99,,2013-05-25 12:52:00,
2013-05-25 07:02:00,47.0,20.0,-100.00,SW,235,10.0,14.0,33,-99.99,,,-99.99,,2013-05-25 13:02:00,
2013-05-25 07:11:00,49.0,20.0,-100.00,SW,225,14.0,16.0,31,-99.99,,,-99.99,,2013-05-25 13:11:00,
2013-05-25 07:21:00,51.0,20.0,-100.00,SSW,210,17.0,20.0,29,-99.99,,,-99.99,,2013-05-25 13:21:00,
2013-05-25 07:32:00,53.0,20.0,-100.00,SW,225,16.0,20.0,27,-99.99,,,-99.99,,2013-05-25 13:32:00,
2013-05-25 07:42:00,53.0,20.0,-100.00,SW,220,15.0,19.0,26,-99.99,,,-99.99,,2013-05-25 13:42:00,
2013-05-25 07:52:00,54.0,20.0,-100.00,SW,215,10.0,16.0,25,-99.99,,,-99.99,,2013-05-25 13:52:00,
2013-05-25 08:02:00,56.0,22.0,-100.00,SW,235,4.0,9.0,25,-99.99,,,-99.99,,2013-05-25 14:02:00,
2013-05-25 08:11:00,56.0,22.0,-100.00,SSW,200,6.0,9.0,25,-99.99,,,-99.99,,2013-05-25 14:11:00,
2013-05-25 08:22:00,57.0,22.0,-100.00,SW,215,7.0,9.0,25,-99.99,,,-99.99,,2013-05-25 14:22:00,
2013-05-25 08:32:00,58.0,21.0,-100.00,SW,215,9.0,11.0,23,-99.99,,,-99.99,,2013-05-25 14:32:00,
2013-05-25 08:41:00,58.0,22.0,-100.00,South,185,6.0,9.0,23,-99.99,,,-99.99,,2013-05-25 14:41:00,
2013-05-25 08:52:00,59.0,23.0,-100.00,SSE,160,6.0,7.0,24,-99.99,,,-99.99,,2013-05-25 14:52:00,
2013-05-25 09:01:00,59.0,21.0,-100.00,South,185,9.0,11.0,23,-99.99,,,-99.99,,2013-05-25 15:01:00,
2013-05-25 09:11:00,59.0,21.0,-100.00,South,185,9.0,12.0,23,-99.99,,,-99.99,,2013-05-25 15:11:00,
2013-05-25 09:22:00,59.0,22.0,-100.00,SSW,195,9.0,13.0,23,-99.99,,,-99.99,,2013-05-25 15:22:00,
2013-05-25 09:33:00,60.0,22.0,-100.00,South,175,9.0,12.0,23,-99.99,,,-99.99,,2013-05-25 15:33:00,
2013-05-25 09:43:00,60.0,22.0,-100.00,South,185,9.0,12.0,23,-99.99,,,-99.99,,2013-05-25 15:43:00,
2013-05-25 09:53:00,60.0,22.0,-100.00,South,180,9.0,11.0,23,-99.99,,,-99.99,,2013-05-25 15:53:00,
2013-05-25 10:03:00,62.0,24.0,-100.00,South,180,11.0,16.0,23,-99.99,,,-99.99,,2013-05-25 16:03:00,
2013-05-25 10:12:00,63.0,24.0,-100.00,South,175,11.0,16.0,22,-99.99,,,-99.99,,2013-05-25 16:12:00,
2013-05-25 10:22:00,65.0,22.0,-100.00,SSE,160,14.0,18.0,19,-99.99,,,-99.99,,2013-05-25 16:22:00,
2013-05-25 10:32:00,65.0,20.0,-100.00,SSE,165,14.0,17.0,17,-99.99,,,-99.99,,2013-05-25 16:32:00,
2013-05-25 10:42:00,66.0,21.0,-100.00,South,180,14.0,17.0,17,-99.99,,,-99.99,,2013-05-25 16:42:00,
2013-05-25 10:52:00,67.0,20.0,-100.00,SSE,160,13.0,17.0,16,-99.99,,,-99.99,,2013-05-25 16:52:00,
2013-05-25 11:02:00,67.0,18.0,-100.00,South,180,15.0,19.0,15,-99.99,,,-99.99,,2013-05-25 17:02:00,
2013-05-25 11:11:00,67.0,18.0,-100.00,SSE,165,15.0,19.0,15,-99.99,,,-99.99,,2013-05-25 17:11:00,
2013-05-25 11:22:00,68.0,20.0,-100.00,SSE,150,12.0,22.0,15,-99.99,,,-99.99,,2013-05-25 17:22:00,
2013-05-25 11:32:00,68.0,21.0,-100.00,SSE,150,15.0,19.0,16,-99.99,,,-99.99,,2013-05-25 17:32:00,
2013-05-25 11:41:00,69.0,21.0,-100.00,SE,130,14.0,21.0,16,-99.99,,,-99.99,,2013-05-25 17:41:00,
2013-05-25 11:52:00,69.0,22.0,-100.00,SE,130,11.0,21.0,17,-99.99,,,-99.99,,2013-05-25 17:52:00,
2013-05-25 12:01:00,69.0,21.0,-100.00,SSE,150,14.0,21.0,16,-99.99,,,-99.99,,2013-05-25 18:01:00,
2013-05-25 12:11:00,69.0,22.0,-100.00,SE,135,15.0,19.0,16,-99.99,,,-99.99,,2013-05-25 18:11:00,
2013-05-25 12:21:00,70.0,21.0,-100.00,SE,125,14.0,19.0,15,-99.99,,,-99.99,,2013-05-25 18:21:00,
2013-05-25 12:31:00,70.0,22.0,-100.00,ESE,120,13.0,18.0,15,-99.99,,,-99.99,,2013-05-25 18:31:00,
2013-05-25 12:41:00,71.0,23.0,-100.00,East,100,9.0,18.0,16,-99.99,,,-99.99,,2013-05-25 18:41:00,
2013-05-25 12:51:00,70.0,22.0,-100.00,ESE,120,15.0,20.0,16,-99.99,,,-99.99,,2013-05-25 18:51:00,
2013-05-25 13:01:00,69.0,23.0,-100.00,SE,125,11.0,20.0,17,-99.99,,,-99.99,,2013-05-25 19:01:00,
2013-05-25 13:11:00,70.0,23.0,-100.00,SE,140,9.0,16.0,17,-99.99,,,-99.99,,2013-05-25 19:11:00,
2013-05-25 13:21:00,69.0,21.0,-100.00,SSE,150,12.0,21.0,15,-99.99,,,-99.99,,2013-05-25 19:21:00,
2013-05-25 13:31:00,71.0,21.0,-100.00,SSE,155,23.0,29.0,15,-99.99,,,-99.99,,2013-05-25 19:31:00,
2013-05-25 13:41:00,71.0,22.0,-100.00,SSE,150,17.0,29.0,15,-99.99,,,-99.99,,2013-05-25 19:41:00,
2013-05-25 13:52:00,72.0,20.0,-100.00,South,175,24.0,27.0,13,-99.99,,,-99.99,,2013-05-25 19:52:00,
2013-05-25 14:02:00,72.0,18.0,-100.00,South,175,13.0,23.0,13,-99.99,,,-99.99,,2013-05-25 20:02:00,
2013-05-25 14:11:00,71.0,20.0,-100.00,SSE,150,12.0,21.0,14,-99.99,,,-99.99,,2013-05-25 20:11:00,
2013-05-25 14:21:00,72.0,20.0,-100.00,South,190,16.0,26.0,13,-99.99,,,-99.99,,2013-05-25 20:21:00,
2013-05-25 14:32:00,72.0,19.0,-100.00,SSE,155,18.0,22.0,13,-99.99,,,-99.99,,2013-05-25 20:32:00,
2013-05-25 14:41:00,72.0,19.0,-100.00,SSE,155,11.0,22.0,13,-99.99,,,-99.99,,2013-05-25 20:41:00,
2013-05-25 14:51:00,71.0,19.0,-100.00,South,185,7.0,26.0,13,-99.99,,,-99.99,,2013-05-25 20:51:00,
2013-05-25 15:01:00,72.0,20.0,-100.00,SSE,165,18.0,24.0,13,-99.99,,,-99.99,,2013-05-25 21:01:00,
2013-05-25 15:11:00,71.0,19.0,-100.00,SSE,165,17.0,24.0,13,-99.99,,,-99.99,,2013-05-25 21:11:00,
2013-05-25 15:21:00,72.0,19.0,-100.00,South,180,13.0,27.0,13,-99.99,,,-99.99,,2013-05-25 21:21:00,
2013-05-25 15:32:00,73.0,19.0,-100.00,South,180,11.0,21.0,13,-99.99,,,-99.99,,2013-05-25 21:32:00,
2013-05-25 15:43:00,72.0,19.0,-100.00,South,185,17.0,23.0,13,-99.99,,,-99.99,,2013-05-25 21:43:00,
2013-05-25 15:53:00,71.0,20.0,-100.00,South,170,12.0,26.0,14,-99.99,,,-99.99,,2013-05-25 21:53:00,
2013-05-25 16:02:00,72.0,19.0,-100.00,South,185,11.0,17.0,13,-99.99,,,-99.99,,2013-05-25 22:02:00,
2013-05-25 16:12:00,71.0,19.0,-100.00,South,185,16.0,20.0,13,-99.99,,,-99.99,,2013-05-25 22:12:00,
2013-05-25 16:22:00,72.0,22.0,-100.00,NNW,340,13.0,17.0,15,-99.99,,,-99.99,,2013-05-25 22:22:00,
2013-05-25 16:32:00,72.0,22.0,-100.00,North,355,9.0,17.0,15,-99.99,,,-99.99,,2013-05-25 22:32:00,
2013-05-25 16:42:00,75.0,23.0,-100.00,North,350,10.0,12.0,14,-99.99,,,-99.99,,2013-05-25 22:42:00,
2013-05-25 16:52:00,74.0,22.0,-100.00,North,0,9.0,12.0,14,-99.99,,,-99.99,,2013-05-25 22:52:00,
2013-05-25 17:02:00,69.0,24.0,-100.00,North,355,19.0,24.0,17,-99.99,,,-99.99,,2013-05-25 23:02:00,
2013-05-25 17:11:00,69.0,24.0,-100.00,North,0,18.0,24.0,17,-99.99,,,-99.99,,2013-05-25 23:11:00,
2013-05-25 17:21:00,69.0,27.0,-100.00,NNW,330,16.0,22.0,20,-99.99,,,-99.99,,2013-05-25 23:21:00,
2013-05-25 17:31:00,69.0,27.0,-100.00,NNW,330,21.0,25.0,21,-99.99,,,-99.99,,2013-05-25 23:31:00,
2013-05-25 17:42:00,67.0,26.0,-100.00,North,350,24.0,28.0,21,-99.99,,,-99.99,,2013-05-25 23:42:00,
2013-05-25 17:52:00,66.0,25.0,-100.00,North,350,24.0,29.0,21,-99.99,,,-99.99,,2013-05-25 23:52:00,
2013-05-25 18:01:00,65.0,24.0,-100.00,North,0,24.0,29.0,21,-99.99,,,-99.99,,2013-05-26 00:01:00,
2013-05-25 18:11:00,64.0,24.0,-100.00,North,0,24.0,32.0,21,-99.99,,,-99.99,,2013-05-26 00:11:00,
2013-05-25 18:21:00,63.0,27.0,-100.00,North,0,22.0,32.0,25,-99.99,,,-99.99,,2013-05-26 00:21:00,
2013-05-25 18:31:00,62.0,27.0,-100.00,North,0,21.0,29.0,25,-99.99,,,-99.99,,2013-05-26 00:31:00,
2013-05-25 18:42:00,62.0,27.0,-100.00,North,0,19.0,27.0,26,-99.99,,,-99.99,,2013-05-26 00:42:00,
2013-05-25 18:52:00,62.0,28.0,-100.00,North,0,19.0,30.0,27,-99.99,,,-99.99,,2013-05-26 00:52:00,
2013-05-25 19:01:00,63.0,28.0,-100.00,North,0,21.0,27.0,27,-99.99,,,-99.99,,2013-05-26 01:01:00,
2013-05-25 19:11:00,63.0,28.0,-100.00,North,0,22.0,30.0,27,-99.99,,,-99.99,,2013-05-26 01:11:00,
2013-05-25 19:21:00,62.0,28.0,-100.00,North,355,24.0,29.0,27,-99.99,,,-99.99,,2013-05-26 01:21:00,
2013-05-25 19:32:00,62.0,28.0,-100.00,North,0,27.0,31.0,27,-99.99,,,-99.99,,2013-05-26 01:32:00,
2013-05-25 19:41:00,61.0,29.0,-100.00,North,355,21.0,27.0,29,-99.99,,,-99.99,,2013-05-26 01:41:00,
2013-05-25 19:52:00,60.0,29.0,-100.00,North,0,25.0,28.0,31,-99.99,,,-99.99,,2013-05-26 01:52:00,
2013-05-25 20:02:00,60.0,29.0,-100.00,North,350,26.0,31.0,31,-99.99,,,-99.99,,2013-05-26 02:02:00,
2013-05-25 20:11:00,60.0,29.0,-100.00,North,350,24.0,31.0,31,-99.99,,,-99.99,,2013-05-26 02:11:00,
2013-05-25 20:21:00,60.0,29.0,-100.00,North,350,26.0,37.0,31,-99.99,,,-99.99,,2013-05-26 02:21:00,
2013-05-25 20:32:00,60.0,29.0,-100.00,NNW,345,26.0,34.0,31,-99.99,,,-99.99,,2013-05-26 02:32:00,
2013-05-25 20:41:00,59.0,29.0,-100.00,North,355,22.0,32.0,31,-99.99,,,-99.99,,2013-05-26 02:41:00,
2013-05-25 20:52:00,59.0,29.0,-100.00,North,355,28.0,35.0,31,-99.99,,,-99.99,,2013-05-26 02:52:00,
2013-05-25 21:01:00,59.0,29.0,-100.00,North,0,24.0,33.0,32,-99.99,,,-99.99,,2013-05-26 03:01:00,
2013-05-25 21:11:00,58.0,30.0,-100.00,North,0,26.0,34.0,33,-99.99,,,-99.99,,2013-05-26 03:11:00,
2013-05-25 21:21:00,58.0,30.0,-100.00,North,0,26.0,35.0,33,-99.99,,,-99.99,,2013-05-26 03:21:00,
2013-05-25 21:33:00,57.0,30.0,-100.00,North,355,22.0,30.0,35,-99.99,,,-99.99,,2013-05-26 03:33:00,
2013-05-25 21:42:00,57.0,30.0,-100.00,North,355,22.0,30.0,35,-99.99,,,-99.99,,2013-05-26 03:42:00,
2013-05-25 21:53:00,57.0,30.0,-100.00,NNW,345,22.0,27.0,36,-99.99,,,-99.99,,2013-05-26 03:53:00,
2013-05-25 22:02:00,56.0,30.0,-100.00,North,350,21.0,27.0,36,-99.99,,,-99.99,,2013-05-26 04:02:00,
2013-05-25 22:12:00,57.0,31.0,-100.00,NNW,345,23.0,28.0,36,-99.99,,,-99.99,,2013-05-26 04:12:00,
2013-05-25 22:23:00,56.0,31.0,-100.00,NNW,340,21.0,27.0,37,-99.99,,,-99.99,,2013-05-26 04:23:00,
2013-05-25 22:33:00,56.0,31.0,-100.00,NNW,340,20.0,26.0,37,-99.99,,,-99.99,,2013-05-26 04:33:00,
2013-05-25 22:42:00,56.0,31.0,-100.00,NNW,345,20.0,25.0,37,-99.99,,,-99.99,,2013-05-26 04:42:00,
2013-05-25 22:52:00,56.0,31.0,-100.00,NNW,335,16.0,23.0,38,-99.99,,,-99.99,,2013-05-26 04:52:00,
2013-05-25 23:02:00,56.0,31.0,-100.00,NNW,335,14.0,19.0,39,-99.99,,,-99.99,,2013-05-26 05:02:00,
2013-05-25 23:12:00,56.0,31.0,-100.00,NNW,335,14.0,19.0,39,-99.99,,,-99.99,,2013-05-26 05:12:00,
2013-05-25 23:21:00,55.0,31.0,-100.00,NW,305,9.0,14.0,39,-99.99,,,-99.99,,2013-05-26 05:21:00,
2013-05-25 23:32:00,55.0,31.0,-100.00,NW,310,8.0,12.0,40,-99.99,,,-99.99,,2013-05-26 05:32:00,
2013-05-25 23:42:00,55.0,31.0,-100.00,NW,315,9.0,12.0,40,-99.99,,,-99.99,,2013-05-26 05:42:00,
2013-05-25 23:52:00,55.0,31.0,-100.00,NW,315,9.0,12.0,40,-99.99,,,-99.99,,2013-05-26 05:52:00,